Svitzer Viana — CSZG3 — position and weather

sailwx.info

Track history (hours):
 
Tides and Currents Weather Stations Pressure Air Temp Water Temp Dewpoint Dewpoint Depression Visibility Wind Speed Wind Dir Waves Ship Positions

Svitzer Viana

Last reported at 2018-Feb-20 03:13 UTC. Time now 2018-Feb-20 04:20 UTC.
Position N 38°42' W 009°10'.

Length 28 m; draft 3.8 m.

Type: Tug. MMSI: 263602568.

Date/timePositionNaut miles runAvg speedWind from/ knotsBaromVisibWave heightAir tempDewpointWater temp
2018-Feb-20 03:13N 38°42' W 009°10'0 0.0
2018-Feb-20 02:44N 38°42' W 009°10'0 0.0
2018-Feb-20 01:43N 38°42' W 009°10'0 0.0
2018-Feb-19 21:50N 38°42' W 009°10'0 0.0
2018-Feb-19 21:19N 38°42' W 009°10'0 0.0
2018-Feb-19 20:59N 38°42' W 009°10'0 0.0
2018-Feb-19 20:29N 38°42' W 009°10'0 0.0
2018-Feb-19 20:00N 38°42' W 009°10'0 0.0
2018-Feb-19 19:27N 38°42' W 009°10'0 0.0
2018-Feb-19 18:55N 38°42' W 009°10'0 0.0
2018-Feb-19 18:30N 38°42' W 009°10'0 0.0
2018-Feb-19 18:00N 38°42' W 009°10'0 0.0
2018-Feb-19 17:28N 38°42' W 009°10'0 0.0
2018-Feb-19 17:00N 38°42' W 009°10'0 0.0
2018-Feb-19 16:18N 38°42' W 009°10'0 0.0
2018-Feb-19 16:01N 38°42' W 009°10'0 0.0
2018-Feb-19 15:28N 38°42' W 009°10'0 0.0
2018-Feb-19 14:59N 38°42' W 009°10'0 0.0
2018-Feb-19 14:28N 38°42' W 009°10'0 0.0
2018-Feb-19 14:00N 38°42' W 009°10'0 0.0
2018-Feb-19 13:28N 38°42' W 009°10'0 0.0
2018-Feb-19 12:57N 38°42' W 009°10'0 0.0
2018-Feb-19 12:23N 38°42' W 009°10'0 0.0
2018-Feb-19 11:56N 38°42' W 009°10'0 0.0
2018-Feb-19 11:30N 38°42' W 009°10'0 0.0
2018-Feb-19 10:59N 38°42' W 009°10'0 0.0
2018-Feb-19 10:29N 38°42' W 009°10'0 0.0
2018-Feb-19 10:00N 38°42' W 009°10'0 0.0
2018-Feb-19 09:30N 38°42' W 009°10'0 0.0
2018-Feb-19 08:53N 38°42' W 009°10'2 4.8
2018-Feb-19 08:30N 38°43' W 009°07'1 1.3
2018-Feb-19 08:00N 38°43' W 009°07'2 3.3
2018-Feb-19 07:30N 38°42' W 009°08'1 2.4
2018-Feb-19 07:00N 38°42' W 009°10'1 2.0
2018-Feb-19 06:30N 38°42' W 009°11'0 0.5
2018-Feb-19 06:00N 38°42' W 009°11'1 2.2
2018-Feb-19 05:29N 38°42' W 009°10'0 0.0
2018-Feb-19 05:00N 38°42' W 009°10'0 0.0
2018-Feb-19 04:28N 38°42' W 009°10'0 0.0
2018-Feb-19 03:53N 38°42' W 009°10'0 0.0
2018-Feb-19 03:28N 38°42' W 009°10'0 0.0
2018-Feb-19 03:00N 38°42' W 009°10'0 0.0
2018-Feb-19 02:29N 38°42' W 009°10'0 0.0
2018-Feb-19 01:53N 38°42' W 009°10'0 0.0
2018-Feb-19 01:30N 38°42' W 009°10'0 0.0
2018-Feb-19 00:56N 38°42' W 009°10'0 0.0
2018-Feb-19 00:29N 38°42' W 009°10'0 0.0
2018-Feb-18 23:58N 38°42' W 009°10'0 0.0
2018-Feb-18 23:30N 38°42' W 009°10'0 0.0
2018-Feb-18 22:55N 38°42' W 009°10'0 0.0
2018-Feb-18 22:24N 38°42' W 009°10'0 0.0
2018-Feb-18 21:57N 38°42' W 009°10'0 0.0
2018-Feb-18 21:27N 38°42' W 009°10'0 0.0
2018-Feb-18 21:00N 38°42' W 009°10'0 0.0
2018-Feb-18 20:30N 38°42' W 009°10'0 0.0
2018-Feb-18 19:58N 38°42' W 009°10'0 0.0
2018-Feb-18 19:28N 38°42' W 009°10'0 0.0
2018-Feb-18 18:59N 38°42' W 009°10'0 0.0
2018-Feb-18 18:30N 38°42' W 009°10'0 0.0
2018-Feb-18 17:56N 38°42' W 009°10'0 0.0
2018-Feb-18 17:28N 38°42' W 009°10'0 0.0
2018-Feb-18 17:00N 38°42' W 009°10'0 0.0
2018-Feb-18 16:25N 38°42' W 009°10'0 0.0
2018-Feb-18 15:57N 38°42' W 009°10'0 0.0
2018-Feb-18 15:29N 38°42' W 009°10'0 0.0
2018-Feb-18 15:00N 38°42' W 009°10'0 0.0
2018-Feb-18 14:30N 38°42' W 009°10'0 0.0
2018-Feb-18 14:00N 38°42' W 009°10'0 0.0
2018-Feb-18 13:28N 38°42' W 009°10'1 2.4
2018-Feb-18 13:00N 38°42' W 009°08'3 6.6
2018-Feb-18 12:30N 38°41' W 009°04'0 0.7
2018-Feb-18 12:00N 38°41' W 009°04'2 4.5
2018-Feb-18 11:27N 38°41' W 009°07'3 4.9
2018-Feb-18 10:57N 38°42' W 009°10'0 0.0
2018-Feb-18 10:30N 38°42' W 009°10'0 0.0
2018-Feb-18 10:00N 38°42' W 009°10'0 0.0
2018-Feb-18 09:29N 38°42' W 009°10'0 0.0
2018-Feb-18 08:58N 38°42' W 009°10'0 0.0
2018-Feb-18 08:27N 38°42' W 009°10'0 0.0
2018-Feb-18 07:56N 38°42' W 009°10'0 0.0
2018-Feb-18 07:27N 38°42' W 009°10'0 0.0
2018-Feb-18 07:00N 38°42' W 009°10'0 0.0
2018-Feb-18 06:29N 38°42' W 009°10'0 0.0
2018-Feb-18 05:59N 38°42' W 009°10'0 0.0
2018-Feb-18 05:30N 38°42' W 009°10'0 0.0
2018-Feb-18 05:00N 38°42' W 009°10'0 0.0
2018-Feb-18 04:29N 38°42' W 009°10'0 0.0
2018-Feb-18 04:00N 38°42' W 009°10'0 0.0
2018-Feb-18 03:29N 38°42' W 009°10'0 0.0
2018-Feb-18 02:58N 38°42' W 009°10'0 0.0
2018-Feb-18 02:30N 38°42' W 009°10'0 0.0
2018-Feb-18 02:00N 38°42' W 009°10'0 0.0
2018-Feb-18 01:29N 38°42' W 009°10'0 0.0
2018-Feb-18 00:56N 38°42' W 009°10'0 0.0
2018-Feb-18 00:29N 38°42' W 009°10'0 0.0
2018-Feb-18 00:00N 38°42' W 009°10'0 0.0
2018-Feb-17 23:30N 38°42' W 009°10'0 0.0
2018-Feb-17 23:00N 38°42' W 009°10'0 0.0
2018-Feb-17 22:29N 38°42' W 009°10'0 0.0
2018-Feb-17 21:47N 38°42' W 009°10'0 0.0
2018-Feb-17 21:30N 38°42' W 009°10'0 0.0
2018-Feb-17 20:58N 38°42' W 009°10'0 0.0
2018-Feb-17 20:30N 38°42' W 009°10'0 0.0
2018-Feb-17 20:00N 38°42' W 009°10'0 0.0
2018-Feb-17 19:30N 38°42' W 009°10'0 0.0
2018-Feb-17 19:00N 38°42' W 009°10'0 0.0
2018-Feb-17 18:21N 38°42' W 009°10'0 0.0
2018-Feb-17 17:56N 38°42' W 009°10'0 0.0
2018-Feb-17 17:16N 38°42' W 009°10'0 0.0
2018-Feb-17 16:58N 38°42' W 009°10'0 0.0
2018-Feb-17 16:29N 38°42' W 009°10'0 0.0
2018-Feb-17 16:00N 38°42' W 009°10'0 0.0
2018-Feb-17 15:26N 38°42' W 009°10'0 0.0
2018-Feb-17 14:56N 38°42' W 009°10'0 0.0
2018-Feb-17 14:21N 38°42' W 009°10'0 0.0
2018-Feb-17 13:59N 38°42' W 009°10'0 0.0
2018-Feb-17 13:22N 38°42' W 009°10'0 0.0
2018-Feb-17 12:58N 38°42' W 009°10'0 0.0
2018-Feb-17 12:22N 38°42' W 009°10'0 0.0
2018-Feb-17 11:59N 38°42' W 009°10'0 0.0
2018-Feb-17 11:29N 38°42' W 009°10'0 0.0
2018-Feb-17 10:59N 38°42' W 009°10'0 0.0
2018-Feb-17 10:28N 38°42' W 009°10'0 0.0
2018-Feb-17 10:00N 38°42' W 009°10'0 0.0
2018-Feb-17 09:30N 38°42' W 009°10'0 0.0
2018-Feb-17 09:00N 38°42' W 009°10'0 0.0
2018-Feb-17 08:29N 38°42' W 009°10'0 0.0
2018-Feb-17 07:55N 38°42' W 009°10'0 0.0
2018-Feb-17 07:30N 38°42' W 009°10'0 0.0
2018-Feb-17 07:00N 38°42' W 009°10'0 0.0
2018-Feb-17 06:30N 38°42' W 009°10'0 0.0
2018-Feb-17 05:58N 38°42' W 009°10'0 0.0
2018-Feb-17 05:24N 38°42' W 009°10'0 0.0
2018-Feb-17 04:56N 38°42' W 009°10'1 2.2
2018-Feb-17 04:30N 38°42' W 009°09'4 7.5
2018-Feb-17 04:00N 38°41' W 009°04'0 0.1
2018-Feb-17 03:30N 38°41' W 009°04'2 3.6
2018-Feb-17 02:59N 38°41' W 009°06'3 4.6
2018-Feb-17 02:18N 38°42' W 009°10'0 0.0
2018-Feb-17 01:53N 38°42' W 009°10'0 0.0
2018-Feb-17 01:26N 38°42' W 009°10'0 0.0
2018-Feb-17 00:56N 38°42' W 009°10'0 0.0
2018-Feb-17 00:26N 38°42' W 009°10'0 0.0
2018-Feb-17 00:00N 38°42' W 009°10'0 0.0
2018-Feb-16 23:28N 38°42' W 009°10'0 0.0
2018-Feb-16 22:58N 38°42' W 009°10'0 0.0
2018-Feb-16 22:29N 38°42' W 009°10'0 0.0
2018-Feb-16 22:00N 38°42' W 009°10'0 0.0
2018-Feb-16 21:19N 38°42' W 009°10'0 0.0
2018-Feb-16 20:58N 38°42' W 009°10'0 0.0
2018-Feb-16 20:24N 38°42' W 009°10'0 0.0
2018-Feb-16 20:00N 38°42' W 009°10'0 0.0
2018-Feb-16 19:25N 38°42' W 009°10'0 0.0
2018-Feb-16 18:58N 38°42' W 009°10'0 0.0
2018-Feb-16 18:30N 38°42' W 009°10'1 1.5
2018-Feb-16 18:00N 38°42' W 009°10'1 2.5
2018-Feb-16 17:25N 38°41' W 009°12'0 1.1
2018-Feb-16 17:00N 38°41' W 009°12'2 4.0
2018-Feb-16 16:29N 38°42' W 009°10'0 0.6
2018-Feb-16 15:55N 38°42' W 009°10'0 0.0
2018-Feb-16 15:30N 38°42' W 009°10'0 0.0
2018-Feb-16 14:51N 38°42' W 009°10'0 0.0
2018-Feb-16 14:24N 38°42' W 009°10'2 5.3
2018-Feb-16 14:00N 38°43' W 009°07'0 0.7
2018-Feb-16 13:16N 38°43' W 009°07'2 6.9
2018-Feb-16 13:00N 38°42' W 009°09'1 1.4
2018-Feb-16 12:25N 38°42' W 009°10'0 0.0
2018-Feb-16 11:59N 38°42' W 009°10'0 0.0
2018-Feb-16 11:23N 38°42' W 009°10'0 0.0
2018-Feb-16 10:58N 38°42' W 009°10'0 0.0
2018-Feb-16 10:28N 38°42' W 009°10'0 0.0
2018-Feb-16 10:00N 38°42' W 009°10'0 0.0
2018-Feb-16 09:30N 38°42' W 009°10'0 0.0
2018-Feb-16 08:59N 38°42' W 009°10'0 0.0
2018-Feb-16 08:30N 38°42' W 009°10'0 0.1
2018-Feb-16 07:53N 38°42' W 009°10'0 0.0
2018-Feb-16 07:23N 38°42' W 009°10'0 0.0
2018-Feb-16 06:51N 38°42' W 009°10'0 0.0
2018-Feb-16 06:30N 38°42' W 009°10'0 0.0
2018-Feb-16 05:56N 38°42' W 009°10'0 0.0
2018-Feb-16 05:30N 38°42' W 009°10'0 0.0
2018-Feb-16 04:55N 38°42' W 009°10'0 0.0
2018-Feb-16 04:25N 38°42' W 009°10'0 0.0
2018-Feb-16 03:59N 38°42' W 009°10'0 0.0
2018-Feb-16 03:28N 38°42' W 009°10'0 0.0
2018-Feb-16 02:59N 38°42' W 009°10'0 0.0
2018-Feb-16 02:27N 38°42' W 009°10'0 0.0
2018-Feb-16 01:57N 38°42' W 009°10'0 0.0
2018-Feb-16 01:22N 38°42' W 009°10'0 0.0
2018-Feb-16 00:47N 38°42' W 009°10'0 0.0
2018-Feb-16 00:28N 38°42' W 009°10'0 0.0
2018-Feb-16 00:00N 38°42' W 009°10'0 0.0
2018-Feb-15 23:19N 38°42' W 009°10'0 0.0
2018-Feb-15 22:57N 38°42' W 009°10'0 0.0
2018-Feb-15 22:30N 38°42' W 009°10'0 0.0
2018-Feb-15 22:00N 38°42' W 009°10'0 0.0
2018-Feb-15 21:29N 38°42' W 009°10'0 0.0
2018-Feb-15 20:35N 38°42' W 009°10'0 0.0
2018-Feb-15 20:21N 38°42' W 009°10'0 0.0
2018-Feb-15 19:59N 38°42' W 009°10'0 0.0
2018-Feb-15 19:22N 38°42' W 009°10'0 0.0
2018-Feb-15 19:00N 38°42' W 009°10'0 0.0
2018-Feb-15 18:30N 38°42' W 009°10'0 0.0
2018-Feb-15 17:59N 38°42' W 009°10'0 0.0
2018-Feb-15 17:28N 38°42' W 009°10'0 0.0
2018-Feb-15 16:58N 38°42' W 009°10'0 0.0
2018-Feb-15 16:26N 38°42' W 009°10'0 0.0
2018-Feb-15 16:00N 38°42' W 009°10'0 0.0
2018-Feb-15 15:29N 38°42' W 009°10'0 0.0
2018-Feb-15 15:00N 38°42' W 009°10'0 0.0
2018-Feb-15 14:30N 38°42' W 009°10'0 0.0
2018-Feb-15 13:54N 38°42' W 009°10'0 0.0
2018-Feb-15 13:30N 38°42' W 009°10'0 0.0
2018-Feb-15 12:55N 38°42' W 009°10'0 0.2
2018-Feb-15 12:28N 38°42' W 009°10'0 0.0
2018-Feb-15 11:57N 38°42' W 009°10'0 0.1
2018-Feb-15 11:29N 38°42' W 009°10'0 0.0
2018-Feb-15 11:00N 38°42' W 009°10'0 0.0
2018-Feb-15 10:31N 38°42' W 009°10'0 0.0
2018-Feb-15 10:00N 38°42' W 009°10'0 0.0
2018-Feb-15 09:30N 38°42' W 009°10'0 0.0
2018-Feb-15 09:00N 38°42' W 009°10'0 0.0
2018-Feb-15 08:30N 38°42' W 009°10'0 0.0
2018-Feb-15 07:53N 38°42' W 009°10'0 0.0
2018-Feb-15 07:29N 38°42' W 009°10'0 0.0
2018-Feb-15 06:54N 38°42' W 009°10'0 0.0
2018-Feb-15 06:20N 38°42' W 009°10'0 0.0
2018-Feb-15 06:00N 38°42' W 009°10'0 0.0
2018-Feb-15 05:28N 38°42' W 009°10'0 0.0
2018-Feb-15 05:00N 38°42' W 009°10'0 0.0
2018-Feb-15 04:29N 38°42' W 009°10'0 0.0
2018-Feb-15 03:57N 38°42' W 009°10'0 0.0
2018-Feb-15 03:29N 38°42' W 009°10'0 0.0
2018-Feb-15 02:59N 38°42' W 009°10'0 0.0
2018-Feb-15 02:26N 38°42' W 009°10'0 0.0
2018-Feb-15 01:58N 38°42' W 009°10'0 0.0
2018-Feb-15 01:17N 38°42' W 009°10'0 0.0
2018-Feb-15 00:59N 38°42' W 009°10'0 0.0
2018-Feb-15 00:23N 38°42' W 009°10'0 0.0
2018-Feb-14 23:59N 38°42' W 009°10'0 0.4
2018-Feb-14 23:12N 38°42' W 009°09'1 7.3
2018-Feb-14 23:00N 38°41' W 009°08'3 6.5
2018-Feb-14 22:30N 38°41' W 009°04'3 4.4
2018-Feb-14 21:55N 38°41' W 009°07'3 5.3
2018-Feb-14 21:27N 38°42' W 009°10'0 0.0
2018-Feb-14 20:54N 38°42' W 009°10'0 0.0
2018-Feb-14 20:25N 38°42' W 009°10'0 0.3
2018-Feb-14 19:59N 38°42' W 009°09'1 1.3
2018-Feb-14 19:29N 38°42' W 009°10'0 1.0
2018-Feb-14 19:00N 38°42' W 009°11'0 0.8
2018-Feb-14 18:26N 38°42' W 009°10'1 0.9
2018-Feb-14 17:48N 38°42' W 009°10'0 0.0
2018-Feb-14 17:22N 38°42' W 009°10'0 0.0
2018-Feb-14 16:52N 38°42' W 009°10'0 0.0
2018-Feb-14 16:27N 38°42' W 009°10'0 0.0
2018-Feb-14 15:49N 38°42' W 009°10'0 0.0
2018-Feb-14 15:23N 38°42' W 009°10'0 0.0
2018-Feb-14 14:59N 38°42' W 009°10'0 0.0
2018-Feb-14 14:30N 38°42' W 009°10'0 0.0
2018-Feb-14 13:59N 38°42' W 009°10'0 0.0
2018-Feb-14 13:07N 38°42' W 009°10'0 0.0
2018-Feb-14 12:33N 38°42' W 009°10'0 0.0
2018-Feb-14 12:28N 38°42' W 009°10'0 0.0
2018-Feb-14 11:59N 38°42' W 009°10'0 0.0
2018-Feb-14 11:29N 38°42' W 009°10'0 0.0
2018-Feb-14 11:00N 38°42' W 009°10'0 0.0
2018-Feb-14 10:30N 38°42' W 009°10'0 0.0
2018-Feb-14 09:54N 38°42' W 009°10'0 0.0
2018-Feb-14 09:30N 38°42' W 009°10'0 0.0
2018-Feb-14 08:59N 38°42' W 009°10'0 0.0
2018-Feb-14 08:28N 38°42' W 009°10'0 0.0
2018-Feb-14 08:00N 38°42' W 009°10'0 0.0
2018-Feb-14 07:27N 38°42' W 009°10'0 0.0
2018-Feb-14 06:59N 38°42' W 009°10'0 0.0
2018-Feb-14 06:28N 38°42' W 009°10'0 0.0
2018-Feb-14 05:56N 38°42' W 009°10'0 0.0
2018-Feb-14 05:29N 38°42' W 009°10'0 0.0
2018-Feb-14 04:56N 38°42' W 009°10'0 0.0
2018-Feb-14 04:30N 38°42' W 009°10'0 0.0
2018-Feb-14 03:57N 38°42' W 009°10'0 0.0
2018-Feb-14 03:23N 38°42' W 009°10'0 0.0
2018-Feb-14 02:54N 38°42' W 009°10'0 0.0
2018-Feb-14 02:24N 38°42' W 009°10'0 0.0
2018-Feb-14 01:58N 38°42' W 009°10'0 0.0
2018-Feb-14 01:30N 38°42' W 009°10'0 0.0
2018-Feb-14 00:58N 38°42' W 009°10'0 0.0
2018-Feb-14 00:27N 38°42' W 009°10'0 0.0
2018-Feb-14 00:00N 38°42' W 009°10'0 0.0
2018-Feb-13 23:27N 38°42' W 009°10'0 0.0
2018-Feb-13 22:54N 38°42' W 009°10'0 0.0
2018-Feb-13 22:29N 38°42' W 009°10'0 0.0
2018-Feb-13 21:56N 38°42' W 009°10'0 0.0
2018-Feb-13 21:30N 38°42' W 009°10'0 0.0
2018-Feb-13 20:59N 38°42' W 009°10'0 0.0
2018-Feb-13 20:30N 38°42' W 009°10'0 0.0
2018-Feb-13 19:59N 38°42' W 009°10'0 0.0
2018-Feb-13 19:28N 38°42' W 009°10'0 0.0
2018-Feb-13 18:55N 38°42' W 009°10'0 0.0
2018-Feb-13 18:24N 38°42' W 009°10'0 0.0
2018-Feb-13 17:38N 38°42' W 009°10'0 0.0
2018-Feb-13 17:19N 38°42' W 009°10'0 0.0
2018-Feb-13 16:51N 38°42' W 009°10'0 0.0
2018-Feb-13 16:23N 38°42' W 009°10'0 0.0
2018-Feb-13 15:44N 38°42' W 009°10'0 0.0
2018-Feb-13 15:29N 38°42' W 009°10'0 0.0
2018-Feb-13 14:55N 38°42' W 009°10'0 0.0
2018-Feb-13 14:30N 38°42' W 009°10'0 0.0
2018-Feb-13 13:57N 38°42' W 009°10'0 0.0
2018-Feb-13 13:24N 38°42' W 009°10'0 0.0
2018-Feb-13 12:52N 38°42' W 009°10'0 0.0
2018-Feb-13 12:28N 38°42' W 009°10'0 0.0
2018-Feb-13 11:58N 38°42' W 009°10'0 0.0
2018-Feb-13 11:22N 38°42' W 009°10'0 0.0
2018-Feb-13 11:00N 38°42' W 009°10'0 0.0
2018-Feb-13 10:26N 38°42' W 009°10'0 0.0
2018-Feb-13 10:00N 38°42' W 009°10'0 0.0
2018-Feb-13 09:28N 38°42' W 009°10'0 0.0
2018-Feb-13 08:58N 38°42' W 009°10'0 0.0
2018-Feb-13 08:30N 38°42' W 009°10'0 0.0
2018-Feb-13 07:59N 38°42' W 009°10'0 0.0
2018-Feb-13 07:28N 38°42' W 009°10'0 0.0
2018-Feb-13 06:58N 38°42' W 009°10'1 2.9
2018-Feb-13 06:30N 38°41' W 009°11'1 1.6
2018-Feb-13 06:00N 38°41' W 009°12'0 0.3
2018-Feb-13 05:30N 38°41' W 009°12'2 4.5
2018-Feb-13 05:00N 38°42' W 009°10'0 0.0
2018-Feb-13 04:29N 38°42' W 009°10'0 0.0
2018-Feb-13 03:54N 38°42' W 009°10'0 0.0
2018-Feb-13 03:25N 38°42' W 009°10'0 0.0
2018-Feb-13 02:48N 38°42' W 009°10'0 0.0
2018-Feb-13 02:25N 38°42' W 009°10'0 0.0
2018-Feb-13 01:53N 38°42' W 009°10'0 0.0
2018-Feb-13 01:19N 38°42' W 009°10'0 0.0
2018-Feb-13 01:00N 38°42' W 009°10'0 0.0
2018-Feb-13 00:27N 38°42' W 009°10'0 0.0
2018-Feb-12 23:32N 38°42' W 009°10'0 0.0
2018-Feb-12 23:29N 38°42' W 009°10'0 0.0
2018-Feb-12 22:59N 38°42' W 009°10'0 0.0
2018-Feb-12 22:28N 38°42' W 009°10'0 0.0
2018-Feb-12 21:59N 38°42' W 009°10'0 0.0
2018-Feb-12 21:27N 38°42' W 009°10'0 0.0
2018-Feb-12 20:59N 38°42' W 009°10'0 0.0
2018-Feb-12 20:22N 38°42' W 009°10'2 3.9
2018-Feb-12 19:57N 38°41' W 009°11'0 0.3
2018-Feb-12 19:27N 38°41' W 009°11'1 3.2
2018-Feb-12 19:00N 38°42' W 009°10'0 0.6
2018-Feb-12 18:29N 38°42' W 009°10'0 0.0
2018-Feb-12 17:50N 38°42' W 009°10'0 0.0
2018-Feb-12 17:29N 38°42' W 009°10'0 0.0
2018-Feb-12 16:51N 38°42' W 009°10'1 3.1
2018-Feb-12 16:28N 38°41' W 009°11'2 3.5
2018-Feb-12 15:55N 38°41' W 009°13'1 1.1
2018-Feb-12 15:14N 38°41' W 009°12'0 1.1
2018-Feb-12 14:58N 38°41' W 009°12'1 2.5
2018-Feb-12 14:25N 38°41' W 009°14'0 0.0
2018-Feb-12 14:00N 38°41' W 009°14'2 4.2
2018-Feb-12 13:30N 38°41' W 009°11'1 2.3
2018-Feb-12 12:53N 38°42' W 009°10'0 0.0
2018-Feb-12 12:29N 38°42' W 009°10'0 0.0
2018-Feb-12 11:54N 38°42' W 009°10'0 0.0
2018-Feb-12 11:12N 38°42' W 009°10'0 0.0
2018-Feb-12 11:00N 38°42' W 009°10'0 0.0
2018-Feb-12 10:30N 38°42' W 009°10'0 0.0
2018-Feb-12 09:57N 38°42' W 009°10'0 0.0
2018-Feb-12 09:29N 38°42' W 009°10'0 0.0
2018-Feb-12 08:59N 38°42' W 009°10'0 0.0
2018-Feb-12 08:27N 38°42' W 009°10'0 0.0
2018-Feb-12 07:58N 38°42' W 009°10'0 0.0
2018-Feb-12 07:29N 38°42' W 009°10'1 1.3
2018-Feb-12 07:00N 38°42' W 009°10'1 1.7
2018-Feb-12 06:29N 38°42' W 009°11'1 2.5
2018-Feb-12 06:00N 38°42' W 009°10'0 0.5
2018-Feb-12 05:30N 38°42' W 009°10'0 0.0
2018-Feb-12 04:59N 38°42' W 009°10'0 0.0
2018-Feb-12 04:30N 38°42' W 009°10'0 0.0
2018-Feb-12 04:00N 38°42' W 009°10'0 0.0
2018-Feb-12 03:29N 38°42' W 009°10'0 0.0
2018-Feb-12 03:00N 38°42' W 009°10'0 0.0
2018-Feb-12 02:28N 38°42' W 009°10'0 0.0
2018-Feb-12 01:51N 38°42' W 009°10'0 0.0
2018-Feb-12 01:23N 38°42' W 009°10'0 0.0
2018-Feb-12 01:00N 38°42' W 009°10'0 0.0
2018-Feb-12 00:29N 38°42' W 009°10'0 0.0
2018-Feb-12 00:00N 38°42' W 009°10'0 0.0
2018-Feb-11 23:30N 38°42' W 009°10'0 0.0
2018-Feb-11 22:58N 38°42' W 009°10'0 0.0
2018-Feb-11 22:30N 38°42' W 009°10'0 0.0
2018-Feb-11 21:59N 38°42' W 009°10'0 0.0
2018-Feb-11 21:29N 38°42' W 009°10'0 0.0
2018-Feb-11 21:00N 38°42' W 009°10'0 0.0
2018-Feb-11 20:30N 38°42' W 009°10'0 0.0
2018-Feb-11 20:00N 38°42' W 009°10'0 0.0
2018-Feb-11 19:30N 38°42' W 009°10'0 0.0
2018-Feb-11 19:00N 38°42' W 009°10'3 5.0
2018-Feb-11 18:30N 38°41' W 009°13'1 2.8
2018-Feb-11 18:00N 38°41' W 009°14'0 0.7
2018-Feb-11 17:30N 38°41' W 009°15'0 0.7
2018-Feb-11 16:58N 38°41' W 009°14'3 5.5
2018-Feb-11 16:30N 38°42' W 009°11'1 1.9
2018-Feb-11 15:51N 38°42' W 009°10'0 0.0
2018-Feb-11 15:28N 38°42' W 009°10'0 0.1
2018-Feb-11 15:00N 38°42' W 009°10'0 0.0
2018-Feb-11 14:30N 38°42' W 009°10'0 0.0
2018-Feb-11 13:59N 38°42' W 009°10'0 0.0
2018-Feb-11 13:30N 38°42' W 009°10'0 0.0
2018-Feb-11 13:00N 38°42' W 009°10'0 0.0
2018-Feb-11 12:29N 38°42' W 009°10'0 0.0
2018-Feb-11 11:59N 38°42' W 009°10'0 0.0
2018-Feb-11 11:28N 38°42' W 009°10'0 0.0
2018-Feb-11 10:57N 38°42' W 009°10'0 0.0
2018-Feb-11 10:28N 38°42' W 009°10'0 0.0
2018-Feb-11 09:54N 38°42' W 009°10'0 0.0
2018-Feb-11 09:28N 38°42' W 009°10'0 0.0
2018-Feb-11 08:57N 38°42' W 009°10'0 0.0
2018-Feb-11 08:28N 38°42' W 009°10'0 0.0
2018-Feb-11 07:59N 38°42' W 009°10'0 0.0
2018-Feb-11 07:31N 38°42' W 009°10'0 0.0
2018-Feb-11 06:59N 38°42' W 009°10'0 0.0
2018-Feb-11 06:29N 38°42' W 009°10'0 0.0
2018-Feb-11 05:58N 38°42' W 009°10'0 0.0
2018-Feb-11 05:30N 38°42' W 009°10'0 0.0
2018-Feb-11 05:00N 38°42' W 009°10'0 0.0
2018-Feb-11 04:29N 38°42' W 009°10'0 0.0
2018-Feb-11 03:59N 38°42' W 009°10'0 0.0
2018-Feb-11 03:30N 38°42' W 009°10'0 0.0
2018-Feb-11 03:01N 38°42' W 009°10'0 0.0
2018-Feb-11 02:30N 38°42' W 009°10'0 0.0
2018-Feb-11 01:55N 38°42' W 009°10'0 0.0
2018-Feb-11 01:29N 38°42' W 009°10'0 0.0
2018-Feb-11 00:59N 38°42' W 009°10'0 0.0
2018-Feb-11 00:22N 38°42' W 009°10'0 0.0
2018-Feb-10 23:58N 38°42' W 009°10'0 0.0
2018-Feb-10 23:27N 38°42' W 009°10'0 0.0
2018-Feb-10 22:59N 38°42' W 009°10'0 0.0
2018-Feb-10 22:30N 38°42' W 009°10'0 0.0
2018-Feb-10 21:55N 38°42' W 009°10'0 0.0
2018-Feb-10 21:21N 38°42' W 009°10'0 0.0
2018-Feb-10 20:53N 38°42' W 009°10'0 0.0
2018-Feb-10 20:30N 38°42' W 009°10'0 0.0
2018-Feb-10 19:53N 38°42' W 009°10'0 0.0
2018-Feb-10 19:26N 38°42' W 009°10'0 0.0
2018-Feb-10 19:00N 38°42' W 009°10'0 0.0
2018-Feb-10 18:30N 38°42' W 009°10'0 0.0
2018-Feb-10 18:00N 38°42' W 009°10'0 0.0
2018-Feb-10 17:29N 38°42' W 009°10'0 0.0
2018-Feb-10 17:00N 38°42' W 009°10'0 0.0
2018-Feb-10 16:25N 38°42' W 009°10'2 3.9
2018-Feb-10 16:00N 38°42' W 009°08'1 2.1
2018-Feb-10 15:27N 38°43' W 009°06'3 4.8
2018-Feb-10 14:54N 38°42' W 009°10'0 0.0
2018-Feb-10 14:29N 38°42' W 009°10'0 0.0
2018-Feb-10 14:00N 38°42' W 009°10'0 0.0
2018-Feb-10 13:28N 38°42' W 009°10'0 0.0
2018-Feb-10 13:00N 38°42' W 009°10'0 0.0
2018-Feb-10 12:30N 38°42' W 009°10'0 0.0
2018-Feb-10 12:00N 38°42' W 009°10'0 0.0
2018-Feb-10 11:23N 38°42' W 009°10'0 0.0
2018-Feb-10 11:00N 38°42' W 009°10'0 0.0
2018-Feb-10 10:29N 38°42' W 009°10'0 0.0
2018-Feb-10 09:49N 38°42' W 009°10'0 0.0
2018-Feb-10 09:29N 38°42' W 009°10'0 0.0
2018-Feb-10 08:59N 38°42' W 009°10'0 0.0
2018-Feb-10 08:19N 38°42' W 009°10'0 0.0
2018-Feb-10 07:42N 38°42' W 009°10'0 0.0
2018-Feb-10 07:28N 38°42' W 009°10'0 0.0
2018-Feb-10 06:37N 38°42' W 009°10'0 0.0
2018-Feb-10 06:10N 38°42' W 009°10'0 0.0
2018-Feb-10 05:52N 38°42' W 009°10'0 0.0
2018-Feb-10 05:29N 38°42' W 009°10'0 0.0
2018-Feb-10 05:00N 38°42' W 009°10'0 0.0
2018-Feb-10 04:28N 38°42' W 009°10'0 0.0
2018-Feb-10 03:52N 38°42' W 009°10'0 0.0
2018-Feb-10 03:28N 38°42' W 009°10'  
Track history (hours):
 
Tides and Currents Weather Stations Pressure Air Temp Water Temp Dewpoint Dewpoint Depression Visibility Wind Speed Wind Dir Waves Ship Positions

Svitzer Viana

Last reported at 2018-Feb-20 03:13 UTC. Time now 2018-Feb-20 04:20 UTC.
Position N 38°42' W 009°10'.

Length 28 m; draft 3.8 m.

Type: Tug. MMSI: 263602568.

Date/timePositionNaut miles runAvg speedWind from/ knotsBaromVisibWave heightAir tempDewpointWater temp
2018-Feb-20 03:13N 38°42' W 009°10'0 0.0
2018-Feb-20 02:44N 38°42' W 009°10'0 0.0
2018-Feb-20 01:43N 38°42' W 009°10'0 0.0
2018-Feb-19 21:50N 38°42' W 009°10'0 0.0
2018-Feb-19 21:19N 38°42' W 009°10'0 0.0
2018-Feb-19 20:59N 38°42' W 009°10'0 0.0
2018-Feb-19 20:29N 38°42' W 009°10'0 0.0
2018-Feb-19 20:00N 38°42' W 009°10'0 0.0
2018-Feb-19 19:27N 38°42' W 009°10'0 0.0
2018-Feb-19 18:55N 38°42' W 009°10'0 0.0
2018-Feb-19 18:30N 38°42' W 009°10'0 0.0
2018-Feb-19 18:00N 38°42' W 009°10'0 0.0
2018-Feb-19 17:28N 38°42' W 009°10'0 0.0
2018-Feb-19 17:00N 38°42' W 009°10'0 0.0
2018-Feb-19 16:18N 38°42' W 009°10'0 0.0
2018-Feb-19 16:01N 38°42' W 009°10'0 0.0
2018-Feb-19 15:28N 38°42' W 009°10'0 0.0
2018-Feb-19 14:59N 38°42' W 009°10'0 0.0
2018-Feb-19 14:28N 38°42' W 009°10'0 0.0
2018-Feb-19 14:00N 38°42' W 009°10'0 0.0
2018-Feb-19 13:28N 38°42' W 009°10'0 0.0
2018-Feb-19 12:57N 38°42' W 009°10'0 0.0
2018-Feb-19 12:23N 38°42' W 009°10'0 0.0
2018-Feb-19 11:56N 38°42' W 009°10'0 0.0
2018-Feb-19 11:30N 38°42' W 009°10'0 0.0
2018-Feb-19 10:59N 38°42' W 009°10'0 0.0
2018-Feb-19 10:29N 38°42' W 009°10'0 0.0
2018-Feb-19 10:00N 38°42' W 009°10'0 0.0
2018-Feb-19 09:30N 38°42' W 009°10'0 0.0
2018-Feb-19 08:53N 38°42' W 009°10'2 4.8
2018-Feb-19 08:30N 38°43' W 009°07'1 1.3
2018-Feb-19 08:00N 38°43' W 009°07'2 3.3
2018-Feb-19 07:30N 38°42' W 009°08'1 2.4
2018-Feb-19 07:00N 38°42' W 009°10'1 2.0
2018-Feb-19 06:30N 38°42' W 009°11'0 0.5
2018-Feb-19 06:00N 38°42' W 009°11'1 2.2
2018-Feb-19 05:29N 38°42' W 009°10'0 0.0
2018-Feb-19 05:00N 38°42' W 009°10'0 0.0
2018-Feb-19 04:28N 38°42' W 009°10'0 0.0
2018-Feb-19 03:53N 38°42' W 009°10'0 0.0
2018-Feb-19 03:28N 38°42' W 009°10'0 0.0
2018-Feb-19 03:00N 38°42' W 009°10'0 0.0
2018-Feb-19 02:29N 38°42' W 009°10'0 0.0
2018-Feb-19 01:53N 38°42' W 009°10'0 0.0
2018-Feb-19 01:30N 38°42' W 009°10'0 0.0
2018-Feb-19 00:56N 38°42' W 009°10'0 0.0
2018-Feb-19 00:29N 38°42' W 009°10'0 0.0
2018-Feb-18 23:58N 38°42' W 009°10'0 0.0
2018-Feb-18 23:30N 38°42' W 009°10'0 0.0
2018-Feb-18 22:55N 38°42' W 009°10'0 0.0
2018-Feb-18 22:24N 38°42' W 009°10'0 0.0
2018-Feb-18 21:57N 38°42' W 009°10'0 0.0
2018-Feb-18 21:27N 38°42' W 009°10'0 0.0
2018-Feb-18 21:00N 38°42' W 009°10'0 0.0
2018-Feb-18 20:30N 38°42' W 009°10'0 0.0
2018-Feb-18 19:58N 38°42' W 009°10'0 0.0
2018-Feb-18 19:28N 38°42' W 009°10'0 0.0
2018-Feb-18 18:59N 38°42' W 009°10'0 0.0
2018-Feb-18 18:30N 38°42' W 009°10'0 0.0
2018-Feb-18 17:56N 38°42' W 009°10'0 0.0
2018-Feb-18 17:28N 38°42' W 009°10'0 0.0
2018-Feb-18 17:00N 38°42' W 009°10'0 0.0
2018-Feb-18 16:25N 38°42' W 009°10'0 0.0
2018-Feb-18 15:57N 38°42' W 009°10'0 0.0
2018-Feb-18 15:29N 38°42' W 009°10'0 0.0
2018-Feb-18 15:00N 38°42' W 009°10'0 0.0
2018-Feb-18 14:30N 38°42' W 009°10'0 0.0
2018-Feb-18 14:00N 38°42' W 009°10'0 0.0
2018-Feb-18 13:28N 38°42' W 009°10'1 2.4
2018-Feb-18 13:00N 38°42' W 009°08'3 6.6
2018-Feb-18 12:30N 38°41' W 009°04'0 0.7
2018-Feb-18 12:00N 38°41' W 009°04'2 4.5
2018-Feb-18 11:27N 38°41' W 009°07'3 4.9
2018-Feb-18 10:57N 38°42' W 009°10'0 0.0
2018-Feb-18 10:30N 38°42' W 009°10'0 0.0
2018-Feb-18 10:00N 38°42' W 009°10'0 0.0
2018-Feb-18 09:29N 38°42' W 009°10'0 0.0
2018-Feb-18 08:58N 38°42' W 009°10'0 0.0
2018-Feb-18 08:27N 38°42' W 009°10'0 0.0
2018-Feb-18 07:56N 38°42' W 009°10'0 0.0
2018-Feb-18 07:27N 38°42' W 009°10'0 0.0
2018-Feb-18 07:00N 38°42' W 009°10'0 0.0
2018-Feb-18 06:29N 38°42' W 009°10'0 0.0
2018-Feb-18 05:59N 38°42' W 009°10'0 0.0
2018-Feb-18 05:30N 38°42' W 009°10'0 0.0
2018-Feb-18 05:00N 38°42' W 009°10'0 0.0
2018-Feb-18 04:29N 38°42' W 009°10'0 0.0
2018-Feb-18 04:00N 38°42' W 009°10'0 0.0
2018-Feb-18 03:29N 38°42' W 009°10'0 0.0
2018-Feb-18 02:58N 38°42' W 009°10'0 0.0
2018-Feb-18 02:30N 38°42' W 009°10'0 0.0
2018-Feb-18 02:00N 38°42' W 009°10'0 0.0
2018-Feb-18 01:29N 38°42' W 009°10'0 0.0
2018-Feb-18 00:56N 38°42' W 009°10'0 0.0
2018-Feb-18 00:29N 38°42' W 009°10'0 0.0
2018-Feb-18 00:00N 38°42' W 009°10'0 0.0
2018-Feb-17 23:30N 38°42' W 009°10'0 0.0
2018-Feb-17 23:00N 38°42' W 009°10'0 0.0
2018-Feb-17 22:29N 38°42' W 009°10'0 0.0
2018-Feb-17 21:47N 38°42' W 009°10'0 0.0
2018-Feb-17 21:30N 38°42' W 009°10'0 0.0
2018-Feb-17 20:58N 38°42' W 009°10'0 0.0
2018-Feb-17 20:30N 38°42' W 009°10'0 0.0
2018-Feb-17 20:00N 38°42' W 009°10'0 0.0
2018-Feb-17 19:30N 38°42' W 009°10'0 0.0
2018-Feb-17 19:00N 38°42' W 009°10'0 0.0
2018-Feb-17 18:21N 38°42' W 009°10'0 0.0
2018-Feb-17 17:56N 38°42' W 009°10'0 0.0
2018-Feb-17 17:16N 38°42' W 009°10'0 0.0
2018-Feb-17 16:58N 38°42' W 009°10'0 0.0
2018-Feb-17 16:29N 38°42' W 009°10'0 0.0
2018-Feb-17 16:00N 38°42' W 009°10'0 0.0
2018-Feb-17 15:26N 38°42' W 009°10'0 0.0
2018-Feb-17 14:56N 38°42' W 009°10'0 0.0
2018-Feb-17 14:21N 38°42' W 009°10'0 0.0
2018-Feb-17 13:59N 38°42' W 009°10'0 0.0
2018-Feb-17 13:22N 38°42' W 009°10'0 0.0
2018-Feb-17 12:58N 38°42' W 009°10'0 0.0
2018-Feb-17 12:22N 38°42' W 009°10'0 0.0
2018-Feb-17 11:59N 38°42' W 009°10'0 0.0
2018-Feb-17 11:29N 38°42' W 009°10'0 0.0
2018-Feb-17 10:59N 38°42' W 009°10'0 0.0
2018-Feb-17 10:28N 38°42' W 009°10'0 0.0
2018-Feb-17 10:00N 38°42' W 009°10'0 0.0
2018-Feb-17 09:30N 38°42' W 009°10'0 0.0
2018-Feb-17 09:00N 38°42' W 009°10'0 0.0
2018-Feb-17 08:29N 38°42' W 009°10'0 0.0
2018-Feb-17 07:55N 38°42' W 009°10'0 0.0
2018-Feb-17 07:30N 38°42' W 009°10'0 0.0
2018-Feb-17 07:00N 38°42' W 009°10'0 0.0
2018-Feb-17 06:30N 38°42' W 009°10'0 0.0
2018-Feb-17 05:58N 38°42' W 009°10'0 0.0
2018-Feb-17 05:24N 38°42' W 009°10'0 0.0
2018-Feb-17 04:56N 38°42' W 009°10'1 2.2
2018-Feb-17 04:30N 38°42' W 009°09'4 7.5
2018-Feb-17 04:00N 38°41' W 009°04'0 0.1
2018-Feb-17 03:30N 38°41' W 009°04'2 3.6
2018-Feb-17 02:59N 38°41' W 009°06'3 4.6
2018-Feb-17 02:18N 38°42' W 009°10'0 0.0
2018-Feb-17 01:53N 38°42' W 009°10'0 0.0
2018-Feb-17 01:26N 38°42' W 009°10'0 0.0
2018-Feb-17 00:56N 38°42' W 009°10'0 0.0
2018-Feb-17 00:26N 38°42' W 009°10'0 0.0
2018-Feb-17 00:00N 38°42' W 009°10'0 0.0
2018-Feb-16 23:28N 38°42' W 009°10'0 0.0
2018-Feb-16 22:58N 38°42' W 009°10'0 0.0
2018-Feb-16 22:29N 38°42' W 009°10'0 0.0
2018-Feb-16 22:00N 38°42' W 009°10'0 0.0
2018-Feb-16 21:19N 38°42' W 009°10'0 0.0
2018-Feb-16 20:58N 38°42' W 009°10'0 0.0
2018-Feb-16 20:24N 38°42' W 009°10'0 0.0
2018-Feb-16 20:00N 38°42' W 009°10'0 0.0
2018-Feb-16 19:25N 38°42' W 009°10'0 0.0
2018-Feb-16 18:58N 38°42' W 009°10'0 0.0
2018-Feb-16 18:30N 38°42' W 009°10'1 1.5
2018-Feb-16 18:00N 38°42' W 009°10'1 2.5
2018-Feb-16 17:25N 38°41' W 009°12'0 1.1
2018-Feb-16 17:00N 38°41' W 009°12'2 4.0
2018-Feb-16 16:29N 38°42' W 009°10'0 0.6
2018-Feb-16 15:55N 38°42' W 009°10'0 0.0
2018-Feb-16 15:30N 38°42' W 009°10'0 0.0
2018-Feb-16 14:51N 38°42' W 009°10'0 0.0
2018-Feb-16 14:24N 38°42' W 009°10'2 5.3
2018-Feb-16 14:00N 38°43' W 009°07'0 0.7
2018-Feb-16 13:16N 38°43' W 009°07'2 6.9
2018-Feb-16 13:00N 38°42' W 009°09'1 1.4
2018-Feb-16 12:25N 38°42' W 009°10'0 0.0
2018-Feb-16 11:59N 38°42' W 009°10'0 0.0
2018-Feb-16 11:23N 38°42' W 009°10'0 0.0
2018-Feb-16 10:58N 38°42' W 009°10'0 0.0
2018-Feb-16 10:28N 38°42' W 009°10'0 0.0
2018-Feb-16 10:00N 38°42' W 009°10'0 0.0
2018-Feb-16 09:30N 38°42' W 009°10'0 0.0
2018-Feb-16 08:59N 38°42' W 009°10'0 0.0
2018-Feb-16 08:30N 38°42' W 009°10'0 0.1
2018-Feb-16 07:53N 38°42' W 009°10'0 0.0
2018-Feb-16 07:23N 38°42' W 009°10'0 0.0
2018-Feb-16 06:51N 38°42' W 009°10'0 0.0
2018-Feb-16 06:30N 38°42' W 009°10'0 0.0
2018-Feb-16 05:56N 38°42' W 009°10'0 0.0
2018-Feb-16 05:30N 38°42' W 009°10'0 0.0
2018-Feb-16 04:55N 38°42' W 009°10'0 0.0
2018-Feb-16 04:25N 38°42' W 009°10'0 0.0
2018-Feb-16 03:59N 38°42' W 009°10'0 0.0
2018-Feb-16 03:28N 38°42' W 009°10'0 0.0
2018-Feb-16 02:59N 38°42' W 009°10'0 0.0
2018-Feb-16 02:27N 38°42' W 009°10'0 0.0
2018-Feb-16 01:57N 38°42' W 009°10'0 0.0
2018-Feb-16 01:22N 38°42' W 009°10'0 0.0
2018-Feb-16 00:47N 38°42' W 009°10'0 0.0
2018-Feb-16 00:28N 38°42' W 009°10'0 0.0
2018-Feb-16 00:00N 38°42' W 009°10'0 0.0
2018-Feb-15 23:19N 38°42' W 009°10'0 0.0
2018-Feb-15 22:57N 38°42' W 009°10'0 0.0
2018-Feb-15 22:30N 38°42' W 009°10'0 0.0
2018-Feb-15 22:00N 38°42' W 009°10'0 0.0
2018-Feb-15 21:29N 38°42' W 009°10'0 0.0
2018-Feb-15 20:35N 38°42' W 009°10'0 0.0
2018-Feb-15 20:21N 38°42' W 009°10'0 0.0
2018-Feb-15 19:59N 38°42' W 009°10'0 0.0
2018-Feb-15 19:22N 38°42' W 009°10'0 0.0
2018-Feb-15 19:00N 38°42' W 009°10'0 0.0
2018-Feb-15 18:30N 38°42' W 009°10'0 0.0
2018-Feb-15 17:59N 38°42' W 009°10'0 0.0
2018-Feb-15 17:28N 38°42' W 009°10'0 0.0
2018-Feb-15 16:58N 38°42' W 009°10'0 0.0
2018-Feb-15 16:26N 38°42' W 009°10'0 0.0
2018-Feb-15 16:00N 38°42' W 009°10'0 0.0
2018-Feb-15 15:29N 38°42' W 009°10'0 0.0
2018-Feb-15 15:00N 38°42' W 009°10'0 0.0
2018-Feb-15 14:30N 38°42' W 009°10'0 0.0
2018-Feb-15 13:54N 38°42' W 009°10'0 0.0
2018-Feb-15 13:30N 38°42' W 009°10'0 0.0
2018-Feb-15 12:55N 38°42' W 009°10'0 0.2
2018-Feb-15 12:28N 38°42' W 009°10'0 0.0
2018-Feb-15 11:57N 38°42' W 009°10'0 0.1
2018-Feb-15 11:29N 38°42' W 009°10'0 0.0
2018-Feb-15 11:00N 38°42' W 009°10'0 0.0
2018-Feb-15 10:31N 38°42' W 009°10'0 0.0
2018-Feb-15 10:00N 38°42' W 009°10'0 0.0
2018-Feb-15 09:30N 38°42' W 009°10'0 0.0
2018-Feb-15 09:00N 38°42' W 009°10'0 0.0
2018-Feb-15 08:30N 38°42' W 009°10'0 0.0
2018-Feb-15 07:53N 38°42' W 009°10'0 0.0
2018-Feb-15 07:29N 38°42' W 009°10'0 0.0
2018-Feb-15 06:54N 38°42' W 009°10'0 0.0
2018-Feb-15 06:20N 38°42' W 009°10'0 0.0
2018-Feb-15 06:00N 38°42' W 009°10'0 0.0
2018-Feb-15 05:28N 38°42' W 009°10'0 0.0
2018-Feb-15 05:00N 38°42' W 009°10'0 0.0
2018-Feb-15 04:29N 38°42' W 009°10'0 0.0
2018-Feb-15 03:57N 38°42' W 009°10'0 0.0
2018-Feb-15 03:29N 38°42' W 009°10'0 0.0
2018-Feb-15 02:59N 38°42' W 009°10'0 0.0
2018-Feb-15 02:26N 38°42' W 009°10'0 0.0
2018-Feb-15 01:58N 38°42' W 009°10'0 0.0
2018-Feb-15 01:17N 38°42' W 009°10'0 0.0
2018-Feb-15 00:59N 38°42' W 009°10'0 0.0
2018-Feb-15 00:23N 38°42' W 009°10'0 0.0
2018-Feb-14 23:59N 38°42' W 009°10'0 0.4
2018-Feb-14 23:12N 38°42' W 009°09'1 7.3
2018-Feb-14 23:00N 38°41' W 009°08'3 6.5
2018-Feb-14 22:30N 38°41' W 009°04'3 4.4
2018-Feb-14 21:55N 38°41' W 009°07'3 5.3
2018-Feb-14 21:27N 38°42' W 009°10'0 0.0
2018-Feb-14 20:54N 38°42' W 009°10'0 0.0
2018-Feb-14 20:25N 38°42' W 009°10'0 0.3
2018-Feb-14 19:59N 38°42' W 009°09'1 1.3
2018-Feb-14 19:29N 38°42' W 009°10'0 1.0
2018-Feb-14 19:00N 38°42' W 009°11'0 0.8
2018-Feb-14 18:26N 38°42' W 009°10'1 0.9
2018-Feb-14 17:48N 38°42' W 009°10'0 0.0
2018-Feb-14 17:22N 38°42' W 009°10'0 0.0
2018-Feb-14 16:52N 38°42' W 009°10'0 0.0
2018-Feb-14 16:27N 38°42' W 009°10'0 0.0
2018-Feb-14 15:49N 38°42' W 009°10'0 0.0
2018-Feb-14 15:23N 38°42' W 009°10'0 0.0
2018-Feb-14 14:59N 38°42' W 009°10'0 0.0
2018-Feb-14 14:30N 38°42' W 009°10'0 0.0
2018-Feb-14 13:59N 38°42' W 009°10'0 0.0
2018-Feb-14 13:07N 38°42' W 009°10'0 0.0
2018-Feb-14 12:33N 38°42' W 009°10'0 0.0
2018-Feb-14 12:28N 38°42' W 009°10'0 0.0
2018-Feb-14 11:59N 38°42' W 009°10'0 0.0
2018-Feb-14 11:29N 38°42' W 009°10'0 0.0
2018-Feb-14 11:00N 38°42' W 009°10'0 0.0
2018-Feb-14 10:30N 38°42' W 009°10'0 0.0
2018-Feb-14 09:54N 38°42' W 009°10'0 0.0
2018-Feb-14 09:30N 38°42' W 009°10'0 0.0
2018-Feb-14 08:59N 38°42' W 009°10'0 0.0
2018-Feb-14 08:28N 38°42' W 009°10'0 0.0
2018-Feb-14 08:00N 38°42' W 009°10'0 0.0
2018-Feb-14 07:27N 38°42' W 009°10'0 0.0
2018-Feb-14 06:59N 38°42' W 009°10'0 0.0
2018-Feb-14 06:28N 38°42' W 009°10'0 0.0
2018-Feb-14 05:56N 38°42' W 009°10'0 0.0
2018-Feb-14 05:29N 38°42' W 009°10'0 0.0
2018-Feb-14 04:56N 38°42' W 009°10'0 0.0
2018-Feb-14 04:30N 38°42' W 009°10'0 0.0
2018-Feb-14 03:57N 38°42' W 009°10'0 0.0
2018-Feb-14 03:23N 38°42' W 009°10'0 0.0
2018-Feb-14 02:54N 38°42' W 009°10'0 0.0
2018-Feb-14 02:24N 38°42' W 009°10'0 0.0
2018-Feb-14 01:58N 38°42' W 009°10'0 0.0
2018-Feb-14 01:30N 38°42' W 009°10'0 0.0
2018-Feb-14 00:58N 38°42' W 009°10'0 0.0
2018-Feb-14 00:27N 38°42' W 009°10'0 0.0
2018-Feb-14 00:00N 38°42' W 009°10'0 0.0
2018-Feb-13 23:27N 38°42' W 009°10'0 0.0
2018-Feb-13 22:54N 38°42' W 009°10'0 0.0
2018-Feb-13 22:29N 38°42' W 009°10'0 0.0
2018-Feb-13 21:56N 38°42' W 009°10'0 0.0
2018-Feb-13 21:30N 38°42' W 009°10'0 0.0
2018-Feb-13 20:59N 38°42' W 009°10'0 0.0
2018-Feb-13 20:30N 38°42' W 009°10'0 0.0
2018-Feb-13 19:59N 38°42' W 009°10'0 0.0
2018-Feb-13 19:28N 38°42' W 009°10'0 0.0
2018-Feb-13 18:55N 38°42' W 009°10'0 0.0
2018-Feb-13 18:24N 38°42' W 009°10'0 0.0
2018-Feb-13 17:38N 38°42' W 009°10'0 0.0
2018-Feb-13 17:19N 38°42' W 009°10'0 0.0
2018-Feb-13 16:51N 38°42' W 009°10'0 0.0
2018-Feb-13 16:23N 38°42' W 009°10'0 0.0
2018-Feb-13 15:44N 38°42' W 009°10'0 0.0
2018-Feb-13 15:29N 38°42' W 009°10'0 0.0
2018-Feb-13 14:55N 38°42' W 009°10'0 0.0
2018-Feb-13 14:30N 38°42' W 009°10'0 0.0
2018-Feb-13 13:57N 38°42' W 009°10'0 0.0
2018-Feb-13 13:24N 38°42' W 009°10'0 0.0
2018-Feb-13 12:52N 38°42' W 009°10'0 0.0
2018-Feb-13 12:28N 38°42' W 009°10'0 0.0
2018-Feb-13 11:58N 38°42' W 009°10'0 0.0
2018-Feb-13 11:22N 38°42' W 009°10'0 0.0
2018-Feb-13 11:00N 38°42' W 009°10'0 0.0
2018-Feb-13 10:26N 38°42' W 009°10'0 0.0
2018-Feb-13 10:00N 38°42' W 009°10'0 0.0
2018-Feb-13 09:28N 38°42' W 009°10'0 0.0
2018-Feb-13 08:58N 38°42' W 009°10'0 0.0
2018-Feb-13 08:30N 38°42' W 009°10'0 0.0
2018-Feb-13 07:59N 38°42' W 009°10'0 0.0
2018-Feb-13 07:28N 38°42' W 009°10'0 0.0
2018-Feb-13 06:58N 38°42' W 009°10'1 2.9
2018-Feb-13 06:30N 38°41' W 009°11'1 1.6
2018-Feb-13 06:00N 38°41' W 009°12'0 0.3
2018-Feb-13 05:30N 38°41' W 009°12'2 4.5
2018-Feb-13 05:00N 38°42' W 009°10'0 0.0
2018-Feb-13 04:29N 38°42' W 009°10'0 0.0
2018-Feb-13 03:54N 38°42' W 009°10'0 0.0
2018-Feb-13 03:25N 38°42' W 009°10'0 0.0
2018-Feb-13 02:48N 38°42' W 009°10'0 0.0
2018-Feb-13 02:25N 38°42' W 009°10'0 0.0
2018-Feb-13 01:53N 38°42' W 009°10'0 0.0
2018-Feb-13 01:19N 38°42' W 009°10'0 0.0
2018-Feb-13 01:00N 38°42' W 009°10'0 0.0
2018-Feb-13 00:27N 38°42' W 009°10'0 0.0
2018-Feb-12 23:32N 38°42' W 009°10'0 0.0
2018-Feb-12 23:29N 38°42' W 009°10'0 0.0
2018-Feb-12 22:59N 38°42' W 009°10'0 0.0
2018-Feb-12 22:28N 38°42' W 009°10'0 0.0
2018-Feb-12 21:59N 38°42' W 009°10'0 0.0
2018-Feb-12 21:27N 38°42' W 009°10'0 0.0
2018-Feb-12 20:59N 38°42' W 009°10'0 0.0
2018-Feb-12 20:22N 38°42' W 009°10'2 3.9
2018-Feb-12 19:57N 38°41' W 009°11'0 0.3
2018-Feb-12 19:27N 38°41' W 009°11'1 3.2
2018-Feb-12 19:00N 38°42' W 009°10'0 0.6
2018-Feb-12 18:29N 38°42' W 009°10'0 0.0
2018-Feb-12 17:50N 38°42' W 009°10'0 0.0
2018-Feb-12 17:29N 38°42' W 009°10'0 0.0
2018-Feb-12 16:51N 38°42' W 009°10'1 3.1
2018-Feb-12 16:28N 38°41' W 009°11'2 3.5
2018-Feb-12 15:55N 38°41' W 009°13'1 1.1
2018-Feb-12 15:14N 38°41' W 009°12'0 1.1
2018-Feb-12 14:58N 38°41' W 009°12'1 2.5
2018-Feb-12 14:25N 38°41' W 009°14'0 0.0
2018-Feb-12 14:00N 38°41' W 009°14'2 4.2
2018-Feb-12 13:30N 38°41' W 009°11'1 2.3
2018-Feb-12 12:53N 38°42' W 009°10'0 0.0
2018-Feb-12 12:29N 38°42' W 009°10'0 0.0
2018-Feb-12 11:54N 38°42' W 009°10'0 0.0
2018-Feb-12 11:12N 38°42' W 009°10'0 0.0
2018-Feb-12 11:00N 38°42' W 009°10'0 0.0
2018-Feb-12 10:30N 38°42' W 009°10'0 0.0
2018-Feb-12 09:57N 38°42' W 009°10'0 0.0
2018-Feb-12 09:29N 38°42' W 009°10'0 0.0
2018-Feb-12 08:59N 38°42' W 009°10'0 0.0
2018-Feb-12 08:27N 38°42' W 009°10'0 0.0
2018-Feb-12 07:58N 38°42' W 009°10'0 0.0
2018-Feb-12 07:29N 38°42' W 009°10'1 1.3
2018-Feb-12 07:00N 38°42' W 009°10'1 1.7
2018-Feb-12 06:29N 38°42' W 009°11'1 2.5
2018-Feb-12 06:00N 38°42' W 009°10'0 0.5
2018-Feb-12 05:30N 38°42' W 009°10'0 0.0
2018-Feb-12 04:59N 38°42' W 009°10'0 0.0
2018-Feb-12 04:30N 38°42' W 009°10'0 0.0
2018-Feb-12 04:00N 38°42' W 009°10'0 0.0
2018-Feb-12 03:29N 38°42' W 009°10'0 0.0
2018-Feb-12 03:00N 38°42' W 009°10'0 0.0
2018-Feb-12 02:28N 38°42' W 009°10'0 0.0
2018-Feb-12 01:51N 38°42' W 009°10'0 0.0
2018-Feb-12 01:23N 38°42' W 009°10'0 0.0
2018-Feb-12 01:00N 38°42' W 009°10'0 0.0
2018-Feb-12 00:29N 38°42' W 009°10'0 0.0
2018-Feb-12 00:00N 38°42' W 009°10'0 0.0
2018-Feb-11 23:30N 38°42' W 009°10'0 0.0
2018-Feb-11 22:58N 38°42' W 009°10'0 0.0
2018-Feb-11 22:30N 38°42' W 009°10'0 0.0
2018-Feb-11 21:59N 38°42' W 009°10'0 0.0
2018-Feb-11 21:29N 38°42' W 009°10'0 0.0
2018-Feb-11 21:00N 38°42' W 009°10'0 0.0
2018-Feb-11 20:30N 38°42' W 009°10'0 0.0
2018-Feb-11 20:00N 38°42' W 009°10'0 0.0
2018-Feb-11 19:30N 38°42' W 009°10'0 0.0
2018-Feb-11 19:00N 38°42' W 009°10'3 5.0
2018-Feb-11 18:30N 38°41' W 009°13'1 2.8
2018-Feb-11 18:00N 38°41' W 009°14'0 0.7
2018-Feb-11 17:30N 38°41' W 009°15'0 0.7
2018-Feb-11 16:58N 38°41' W 009°14'3 5.5
2018-Feb-11 16:30N 38°42' W 009°11'1 1.9
2018-Feb-11 15:51N 38°42' W 009°10'0 0.0
2018-Feb-11 15:28N 38°42' W 009°10'0 0.1
2018-Feb-11 15:00N 38°42' W 009°10'0 0.0
2018-Feb-11 14:30N 38°42' W 009°10'0 0.0
2018-Feb-11 13:59N 38°42' W 009°10'0 0.0
2018-Feb-11 13:30N 38°42' W 009°10'0 0.0
2018-Feb-11 13:00N 38°42' W 009°10'0 0.0
2018-Feb-11 12:29N 38°42' W 009°10'0 0.0
2018-Feb-11 11:59N 38°42' W 009°10'0 0.0
2018-Feb-11 11:28N 38°42' W 009°10'0 0.0
2018-Feb-11 10:57N 38°42' W 009°10'0 0.0
2018-Feb-11 10:28N 38°42' W 009°10'0 0.0
2018-Feb-11 09:54N 38°42' W 009°10'0 0.0
2018-Feb-11 09:28N 38°42' W 009°10'0 0.0
2018-Feb-11 08:57N 38°42' W 009°10'0 0.0
2018-Feb-11 08:28N 38°42' W 009°10'0 0.0
2018-Feb-11 07:59N 38°42' W 009°10'0 0.0
2018-Feb-11 07:31N 38°42' W 009°10'0 0.0
2018-Feb-11 06:59N 38°42' W 009°10'0 0.0
2018-Feb-11 06:29N 38°42' W 009°10'0 0.0
2018-Feb-11 05:58N 38°42' W 009°10'0 0.0
2018-Feb-11 05:30N 38°42' W 009°10'0 0.0
2018-Feb-11 05:00N 38°42' W 009°10'0 0.0
2018-Feb-11 04:29N 38°42' W 009°10'0 0.0
2018-Feb-11 03:59N 38°42' W 009°10'0 0.0
2018-Feb-11 03:30N 38°42' W 009°10'0 0.0
2018-Feb-11 03:01N 38°42' W 009°10'0 0.0
2018-Feb-11 02:30N 38°42' W 009°10'0 0.0
2018-Feb-11 01:55N 38°42' W 009°10'0 0.0
2018-Feb-11 01:29N 38°42' W 009°10'0 0.0
2018-Feb-11 00:59N 38°42' W 009°10'0 0.0
2018-Feb-11 00:22N 38°42' W 009°10'0 0.0
2018-Feb-10 23:58N 38°42' W 009°10'0 0.0
2018-Feb-10 23:27N 38°42' W 009°10'0 0.0
2018-Feb-10 22:59N 38°42' W 009°10'0 0.0
2018-Feb-10 22:30N 38°42' W 009°10'0 0.0
2018-Feb-10 21:55N 38°42' W 009°10'0 0.0
2018-Feb-10 21:21N 38°42' W 009°10'0 0.0
2018-Feb-10 20:53N 38°42' W 009°10'0 0.0
2018-Feb-10 20:30N 38°42' W 009°10'0 0.0
2018-Feb-10 19:53N 38°42' W 009°10'0 0.0
2018-Feb-10 19:26N 38°42' W 009°10'0 0.0
2018-Feb-10 19:00N 38°42' W 009°10'0 0.0
2018-Feb-10 18:30N 38°42' W 009°10'0 0.0
2018-Feb-10 18:00N 38°42' W 009°10'0 0.0
2018-Feb-10 17:29N 38°42' W 009°10'0 0.0
2018-Feb-10 17:00N 38°42' W 009°10'0 0.0
2018-Feb-10 16:25N 38°42' W 009°10'2 3.9
2018-Feb-10 16:00N 38°42' W 009°08'1 2.1
2018-Feb-10 15:27N 38°43' W 009°06'3 4.8
2018-Feb-10 14:54N 38°42' W 009°10'0 0.0
2018-Feb-10 14:29N 38°42' W 009°10'0 0.0
2018-Feb-10 14:00N 38°42' W 009°10'0 0.0
2018-Feb-10 13:28N 38°42' W 009°10'0 0.0
2018-Feb-10 13:00N 38°42' W 009°10'0 0.0
2018-Feb-10 12:30N 38°42' W 009°10'0 0.0
2018-Feb-10 12:00N 38°42' W 009°10'0 0.0
2018-Feb-10 11:23N 38°42' W 009°10'0 0.0
2018-Feb-10 11:00N 38°42' W 009°10'0 0.0
2018-Feb-10 10:29N 38°42' W 009°10'0 0.0
2018-Feb-10 09:49N 38°42' W 009°10'0 0.0
2018-Feb-10 09:29N 38°42' W 009°10'0 0.0
2018-Feb-10 08:59N 38°42' W 009°10'0 0.0
2018-Feb-10 08:19N 38°42' W 009°10'0 0.0
2018-Feb-10 07:42N 38°42' W 009°10'0 0.0
2018-Feb-10 07:28N 38°42' W 009°10'0 0.0
2018-Feb-10 06:37N 38°42' W 009°10'0 0.0
2018-Feb-10 06:10N 38°42' W 009°10'0 0.0
2018-Feb-10 05:52N 38°42' W 009°10'0 0.0
2018-Feb-10 05:29N 38°42' W 009°10'0 0.0
2018-Feb-10 05:00N 38°42' W 009°10'0 0.0
2018-Feb-10 04:28N 38°42' W 009°10'0 0.0
2018-Feb-10 03:52N 38°42' W 009°10'0 0.0
2018-Feb-10 03:28N 38°42' W 009°10'  

Dump ship's entire track history